sensor_id;sensor_type;location;lat;lon;timestamp;temperature;humidity
44433;DHT22;30136;50.600;4.608;2022-09-09T00:00:00;26.90;51.70
44433;DHT22;30136;50.600;4.608;2022-09-09T00:02:45;26.90;51.60
44433;DHT22;30136;50.600;4.608;2022-09-09T00:03:59;26.90;51.60
44433;DHT22;30136;50.600;4.608;2022-09-09T00:08:21;26.80;51.40
44433;DHT22;30136;50.600;4.608;2022-09-09T00:09:28;26.80;51.50
44433;DHT22;30136;50.600;4.608;2022-09-09T00:10:39;26.90;51.60
44433;DHT22;30136;50.600;4.608;2022-09-09T00:11:46;26.90;51.40
44433;DHT22;30136;50.600;4.608;2022-09-09T00:15:19;26.90;51.30
44433;DHT22;30136;50.600;4.608;2022-09-09T00:16:25;26.80;51.30
44433;DHT22;30136;50.600;4.608;2022-09-09T00:17:49;26.90;51.50
44433;DHT22;30136;50.600;4.608;2022-09-09T00:20:33;26.90;51.50
44433;DHT22;30136;50.600;4.608;2022-09-09T00:21:48;26.90;51.50
44433;DHT22;30136;50.600;4.608;2022-09-09T00:23:12;26.80;51.50
44433;DHT22;30136;50.600;4.608;2022-09-09T00:24:43;26.90;51.70
44433;DHT22;30136;50.600;4.608;2022-09-09T00:28:23;26.90;51.70
44433;DHT22;30136;50.600;4.608;2022-09-09T00:30:42;26.80;51.50
44433;DHT22;30136;50.600;4.608;2022-09-09T00:31:43;26.80;51.60
44433;DHT22;30136;50.600;4.608;2022-09-09T00:32:44;26.80;51.60
44433;DHT22;30136;50.600;4.608;2022-09-09T00:33:46;26.80;51.60
44433;DHT22;30136;50.600;4.608;2022-09-09T00:35:03;26.80;51.60
44433;DHT22;30136;50.600;4.608;2022-09-09T00:36:17;26.80;51.50
44433;DHT22;30136;50.600;4.608;2022-09-09T00:37:21;26.80;51.40
44433;DHT22;30136;50.600;4.608;2022-09-09T00:38:36;26.80;51.30
44433;DHT22;30136;50.600;4.608;2022-09-09T00:39:42;26.90;51.40
44433;DHT22;30136;50.600;4.608;2022-09-09T00:40:52;26.80;51.40
44433;DHT22;30136;50.600;4.608;2022-09-09T00:42:18;26.80;51.50
44433;DHT22;30136;50.600;4.608;2022-09-09T00:43:32;26.80;51.30
44433;DHT22;30136;50.600;4.608;2022-09-09T00:44:48;26.80;51.50
44433;DHT22;30136;50.600;4.608;2022-09-09T00:55:03;26.80;52.30
44433;DHT22;30136;50.600;4.608;2022-09-09T00:56:37;26.80;51.60
44433;DHT22;30136;50.600;4.608;2022-09-09T00:57:42;26.80;51.50
44433;DHT22;30136;50.600;4.608;2022-09-09T00:59:05;26.80;51.60
44433;DHT22;30136;50.600;4.608;2022-09-09T01:00:40;26.80;51.60
44433;DHT22;30136;50.600;4.608;2022-09-09T01:01:43;26.80;51.60
44433;DHT22;30136;50.600;4.608;2022-09-09T01:04:36;26.80;51.70
44433;DHT22;30136;50.600;4.608;2022-09-09T01:06:01;26.80;51.80
44433;DHT22;30136;50.600;4.608;2022-09-09T01:07:22;26.80;51.90
44433;DHT22;30136;50.600;4.608;2022-09-09T01:09:57;26.80;52.00
44433;DHT22;30136;50.600;4.608;2022-09-09T01:10:59;26.80;51.80
44433;DHT22;30136;50.600;4.608;2022-09-09T01:13:25;26.80;52.00
44433;DHT22;30136;50.600;4.608;2022-09-09T01:15:50;26.80;51.90
44433;DHT22;30136;50.600;4.608;2022-09-09T01:16:58;26.80;51.90
44433;DHT22;30136;50.600;4.608;2022-09-09T01:18:10;26.80;51.80
44433;DHT22;30136;50.600;4.608;2022-09-09T01:21:33;26.80;51.80
44433;DHT22;30136;50.600;4.608;2022-09-09T01:24:38;26.80;51.80
44433;DHT22;30136;50.600;4.608;2022-09-09T01:26:30;26.80;51.80
44433;DHT22;30136;50.600;4.608;2022-09-09T01:27:37;26.80;51.80
44433;DHT22;30136;50.600;4.608;2022-09-09T01:28:43;26.80;51.80
44433;DHT22;30136;50.600;4.608;2022-09-09T01:29:48;26.80;51.70
44433;DHT22;30136;50.600;4.608;2022-09-09T01:30:51;26.80;51.80
44433;DHT22;30136;50.600;4.608;2022-09-09T01:32:35;26.80;51.80
44433;DHT22;30136;50.600;4.608;2022-09-09T01:33:42;26.80;51.90
44433;DHT22;30136;50.600;4.608;2022-09-09T01:34:43;26.80;51.70
44433;DHT22;30136;50.600;4.608;2022-09-09T01:36:00;26.80;51.90
44433;DHT22;30136;50.600;4.608;2022-09-09T01:37:12;26.80;51.90
44433;DHT22;30136;50.600;4.608;2022-09-09T01:38:15;26.80;51.90
44433;DHT22;30136;50.600;4.608;2022-09-09T01:39:17;26.80;51.80
44433;DHT22;30136;50.600;4.608;2022-09-09T01:40:19;26.80;51.70
44433;DHT22;30136;50.600;4.608;2022-09-09T01:41:22;26.80;52.00
44433;DHT22;30136;50.600;4.608;2022-09-09T01:42:33;26.80;51.70
44433;DHT22;30136;50.600;4.608;2022-09-09T01:43:34;26.80;51.70
44433;DHT22;30136;50.600;4.608;2022-09-09T01:44:37;26.80;51.70
44433;DHT22;30136;50.600;4.608;2022-09-09T01:45:39;26.80;51.80
44433;DHT22;30136;50.600;4.608;2022-09-09T01:46:41;26.80;51.70
44433;DHT22;30136;50.600;4.608;2022-09-09T01:47:50;26.80;51.70
44433;DHT22;30136;50.600;4.608;2022-09-09T01:49:09;26.80;51.80
44433;DHT22;30136;50.600;4.608;2022-09-09T01:50:13;26.80;51.70
44433;DHT22;30136;50.600;4.608;2022-09-09T01:51:15;26.80;51.70
44433;DHT22;30136;50.600;4.608;2022-09-09T01:52:16;26.80;51.60
44433;DHT22;30136;50.600;4.608;2022-09-09T01:53:18;26.80;51.70
44433;DHT22;30136;50.600;4.608;2022-09-09T01:54:24;26.80;51.60
44433;DHT22;30136;50.600;4.608;2022-09-09T01:55:30;26.80;51.60
44433;DHT22;30136;50.600;4.608;2022-09-09T01:56:54;26.80;51.60
44433;DHT22;30136;50.600;4.608;2022-09-09T02:00:08;26.80;51.60
44433;DHT22;30136;50.600;4.608;2022-09-09T02:01:27;26.80;51.60
44433;DHT22;30136;50.600;4.608;2022-09-09T02:08:11;26.80;51.40
44433;DHT22;30136;50.600;4.608;2022-09-09T02:09:32;26.80;51.40
44433;DHT22;30136;50.600;4.608;2022-09-09T02:10:52;26.80;51.40
44433;DHT22;30136;50.600;4.608;2022-09-09T02:12:19;26.80;51.50
44433;DHT22;30136;50.600;4.608;2022-09-09T02:13:29;26.80;51.50
44433;DHT22;30136;50.600;4.608;2022-09-09T02:14:37;26.80;51.50
44433;DHT22;30136;50.600;4.608;2022-09-09T02:16:06;26.80;51.30
44433;DHT22;30136;50.600;4.608;2022-09-09T02:17:10;26.80;51.30
44433;DHT22;30136;50.600;4.608;2022-09-09T02:18:40;26.80;51.30
44433;DHT22;30136;50.600;4.608;2022-09-09T02:20:07;26.80;51.30
44433;DHT22;30136;50.600;4.608;2022-09-09T02:21:17;26.80;51.30
44433;DHT22;30136;50.600;4.608;2022-09-09T02:22:20;26.80;51.30
44433;DHT22;30136;50.600;4.608;2022-09-09T02:23:23;26.80;51.40
44433;DHT22;30136;50.600;4.608;2022-09-09T02:24:30;26.80;51.30
44433;DHT22;30136;50.600;4.608;2022-09-09T02:25:48;26.70;51.20
44433;DHT22;30136;50.600;4.608;2022-09-09T02:26:58;26.80;51.30
44433;DHT22;30136;50.600;4.608;2022-09-09T02:28:02;26.70;51.30
44433;DHT22;30136;50.600;4.608;2022-09-09T02:29:10;26.70;51.20
44433;DHT22;30136;50.600;4.608;2022-09-09T02:30:14;26.80;51.50
44433;DHT22;30136;50.600;4.608;2022-09-09T02:31:22;26.80;51.40
44433;DHT22;30136;50.600;4.608;2022-09-09T02:32:29;26.80;51.40
44433;DHT22;30136;50.600;4.608;2022-09-09T02:33:38;26.80;51.40
44433;DHT22;30136;50.600;4.608;2022-09-09T02:34:58;26.80;51.50
44433;DHT22;30136;50.600;4.608;2022-09-09T02:36:30;26.80;51.30
44433;DHT22;30136;50.600;4.608;2022-09-09T02:37:37;26.80;51.40
44433;DHT22;30136;50.600;4.608;2022-09-09T02:38:45;26.80;51.50
44433;DHT22;30136;50.600;4.608;2022-09-09T02:39:51;26.80;51.50
44433;DHT22;30136;50.600;4.608;2022-09-09T02:40:55;26.80;51.40
44433;DHT22;30136;50.600;4.608;2022-09-09T02:41:55;26.80;51.40
44433;DHT22;30136;50.600;4.608;2022-09-09T02:43:04;26.80;51.40
44433;DHT22;30136;50.600;4.608;2022-09-09T02:44:15;26.80;51.50
44433;DHT22;30136;50.600;4.608;2022-09-09T02:45:32;26.80;51.40
44433;DHT22;30136;50.600;4.608;2022-09-09T02:48:59;26.80;51.50
44433;DHT22;30136;50.600;4.608;2022-09-09T02:51:24;26.80;51.50
44433;DHT22;30136;50.600;4.608;2022-09-09T02:54:15;26.80;51.50
44433;DHT22;30136;50.600;4.608;2022-09-09T02:55:27;26.80;51.50
44433;DHT22;30136;50.600;4.608;2022-09-09T02:56:40;26.80;51.50
44433;DHT22;30136;50.600;4.608;2022-09-09T02:57:45;26.70;51.50
44433;DHT22;30136;50.600;4.608;2022-09-09T02:58:49;26.70;51.50
44433;DHT22;30136;50.600;4.608;2022-09-09T02:59:52;26.80;51.40
44433;DHT22;30136;50.600;4.608;2022-09-09T03:00:53;26.70;51.40
44433;DHT22;30136;50.600;4.608;2022-09-09T03:01:54;26.70;51.50
44433;DHT22;30136;50.600;4.608;2022-09-09T03:02:56;26.70;51.40
44433;DHT22;30136;50.600;4.608;2022-09-09T03:03:57;26.70;51.40
44433;DHT22;30136;50.600;4.608;2022-09-09T03:04:58;26.70;51.40
44433;DHT22;30136;50.600;4.608;2022-09-09T03:05:59;26.70;51.50
44433;DHT22;30136;50.600;4.608;2022-09-09T03:07:01;26.70;51.50
44433;DHT22;30136;50.600;4.608;2022-09-09T03:08:04;26.70;51.50
44433;DHT22;30136;50.600;4.608;2022-09-09T03:09:05;26.70;51.40
44433;DHT22;30136;50.600;4.608;2022-09-09T03:10:08;26.70;51.40
44433;DHT22;30136;50.600;4.608;2022-09-09T03:11:10;26.70;51.40
44433;DHT22;30136;50.600;4.608;2022-09-09T03:12:12;26.70;51.50
44433;DHT22;30136;50.600;4.608;2022-09-09T03:13:14;26.70;51.50
44433;DHT22;30136;50.600;4.608;2022-09-09T03:14:16;26.70;51.50
44433;DHT22;30136;50.600;4.608;2022-09-09T03:15:17;26.70;51.60
44433;DHT22;30136;50.600;4.608;2022-09-09T03:16:18;26.70;51.50
44433;DHT22;30136;50.600;4.608;2022-09-09T03:17:23;26.70;51.60
44433;DHT22;30136;50.600;4.608;2022-09-09T03:18:28;26.70;51.60
44433;DHT22;30136;50.600;4.608;2022-09-09T03:19:29;26.70;51.50
44433;DHT22;30136;50.600;4.608;2022-09-09T03:20:30;26.70;51.50
44433;DHT22;30136;50.600;4.608;2022-09-09T03:21:31;26.70;51.50
44433;DHT22;30136;50.600;4.608;2022-09-09T03:22:33;26.70;51.40
44433;DHT22;30136;50.600;4.608;2022-09-09T03:23:35;26.70;51.40
44433;DHT22;30136;50.600;4.608;2022-09-09T03:24:37;26.70;51.50
44433;DHT22;30136;50.600;4.608;2022-09-09T03:25:39;26.70;51.50
44433;DHT22;30136;50.600;4.608;2022-09-09T03:26:41;26.70;51.40
44433;DHT22;30136;50.600;4.608;2022-09-09T03:27:47;26.70;51.60
44433;DHT22;30136;50.600;4.608;2022-09-09T03:28:48;26.70;51.60
44433;DHT22;30136;50.600;4.608;2022-09-09T03:29:53;26.70;51.50
44433;DHT22;30136;50.600;4.608;2022-09-09T03:31:01;26.70;51.50
44433;DHT22;30136;50.600;4.608;2022-09-09T03:32:07;26.70;51.50
44433;DHT22;30136;50.600;4.608;2022-09-09T03:33:10;26.70;51.60
44433;DHT22;30136;50.600;4.608;2022-09-09T03:34:12;26.70;51.50
44433;DHT22;30136;50.600;4.608;2022-09-09T03:35:14;26.70;51.50
44433;DHT22;30136;50.600;4.608;2022-09-09T03:36:16;26.70;51.60
44433;DHT22;30136;50.600;4.608;2022-09-09T03:37:19;26.70;51.50
44433;DHT22;30136;50.600;4.608;2022-09-09T03:38:21;26.60;51.50
44433;DHT22;30136;50.600;4.608;2022-09-09T03:39:22;26.70;51.50
44433;DHT22;30136;50.600;4.608;2022-09-09T03:40:23;26.70;51.60
44433;DHT22;30136;50.600;4.608;2022-09-09T03:41:25;26.60;51.50
44433;DHT22;30136;50.600;4.608;2022-09-09T03:42:26;26.60;51.50
44433;DHT22;30136;50.600;4.608;2022-09-09T03:43:29;26.70;51.50
44433;DHT22;30136;50.600;4.608;2022-09-09T03:44:30;26.60;51.60
44433;DHT22;30136;50.600;4.608;2022-09-09T03:45:31;26.70;51.70
44433;DHT22;30136;50.600;4.608;2022-09-09T03:46:33;26.60;51.50
44433;DHT22;30136;50.600;4.608;2022-09-09T03:47:34;26.60;51.50
44433;DHT22;30136;50.600;4.608;2022-09-09T03:48:39;26.60;51.50
44433;DHT22;30136;50.600;4.608;2022-09-09T03:49:40;26.60;51.50
44433;DHT22;30136;50.600;4.608;2022-09-09T03:50:45;26.70;51.50
44433;DHT22;30136;50.600;4.608;2022-09-09T03:51:47;26.60;51.40
44433;DHT22;30136;50.600;4.608;2022-09-09T03:52:48;26.60;51.50
44433;DHT22;30136;50.600;4.608;2022-09-09T03:53:54;26.70;51.60
44433;DHT22;30136;50.600;4.608;2022-09-09T03:54:57;26.60;51.50
44433;DHT22;30136;50.600;4.608;2022-09-09T03:55:58;26.60;51.60
44433;DHT22;30136;50.600;4.608;2022-09-09T03:57:01;26.70;51.50
44433;DHT22;30136;50.600;4.608;2022-09-09T03:58:02;26.70;51.50
44433;DHT22;30136;50.600;4.608;2022-09-09T03:59:04;26.60;51.60
44433;DHT22;30136;50.600;4.608;2022-09-09T04:00:06;26.70;51.70
44433;DHT22;30136;50.600;4.608;2022-09-09T04:01:16;26.70;51.60
44433;DHT22;30136;50.600;4.608;2022-09-09T04:02:18;26.60;51.50
44433;DHT22;30136;50.600;4.608;2022-09-09T04:03:19;26.70;51.60
44433;DHT22;30136;50.600;4.608;2022-09-09T04:04:20;26.60;51.60
44433;DHT22;30136;50.600;4.608;2022-09-09T04:05:22;26.60;51.50
44433;DHT22;30136;50.600;4.608;2022-09-09T04:06:24;26.60;51.70
44433;DHT22;30136;50.600;4.608;2022-09-09T04:07:25;26.60;51.50
44433;DHT22;30136;50.600;4.608;2022-09-09T04:08:27;26.60;51.50
44433;DHT22;30136;50.600;4.608;2022-09-09T04:09:28;26.60;51.50
44433;DHT22;30136;50.600;4.608;2022-09-09T04:10:30;26.60;51.60
44433;DHT22;30136;50.600;4.608;2022-09-09T04:11:32;26.60;51.50
44433;DHT22;30136;50.600;4.608;2022-09-09T04:12:34;26.60;51.60
44433;DHT22;30136;50.600;4.608;2022-09-09T04:13:37;26.60;51.60
44433;DHT22;30136;50.600;4.608;2022-09-09T04:14:40;26.60;51.60
44433;DHT22;30136;50.600;4.608;2022-09-09T04:15:42;26.60;51.60
44433;DHT22;30136;50.600;4.608;2022-09-09T04:16:43;26.60;51.50
44433;DHT22;30136;50.600;4.608;2022-09-09T04:17:45;26.60;51.50
44433;DHT22;30136;50.600;4.608;2022-09-09T04:18:46;26.60;51.50
44433;DHT22;30136;50.600;4.608;2022-09-09T04:19:49;26.60;51.60
44433;DHT22;30136;50.600;4.608;2022-09-09T04:20:52;26.60;51.50
44433;DHT22;30136;50.600;4.608;2022-09-09T04:21:56;26.60;51.60
44433;DHT22;30136;50.600;4.608;2022-09-09T04:22:57;26.60;51.50
44433;DHT22;30136;50.600;4.608;2022-09-09T04:23:58;26.60;51.50
44433;DHT22;30136;50.600;4.608;2022-09-09T04:25:00;26.60;51.50
44433;DHT22;30136;50.600;4.608;2022-09-09T04:26:03;26.60;51.60
44433;DHT22;30136;50.600;4.608;2022-09-09T04:27:06;26.60;51.50
44433;DHT22;30136;50.600;4.608;2022-09-09T04:28:09;26.60;51.60
44433;DHT22;30136;50.600;4.608;2022-09-09T04:29:10;26.60;51.50
44433;DHT22;30136;50.600;4.608;2022-09-09T04:30:12;26.60;51.60
44433;DHT22;30136;50.600;4.608;2022-09-09T04:31:21;26.60;51.50
44433;DHT22;30136;50.600;4.608;2022-09-09T04:32:25;26.60;51.50
44433;DHT22;30136;50.600;4.608;2022-09-09T04:33:28;26.60;51.50
44433;DHT22;30136;50.600;4.608;2022-09-09T04:34:29;26.60;51.40
44433;DHT22;30136;50.600;4.608;2022-09-09T04:35:30;26.60;51.50
44433;DHT22;30136;50.600;4.608;2022-09-09T04:36:32;26.60;51.40
44433;DHT22;30136;50.600;4.608;2022-09-09T04:37:36;26.60;51.50
44433;DHT22;30136;50.600;4.608;2022-09-09T04:38:37;26.60;51.40
44433;DHT22;30136;50.600;4.608;2022-09-09T04:39:38;26.60;51.50
44433;DHT22;30136;50.600;4.608;2022-09-09T04:40:44;26.50;51.40
44433;DHT22;30136;50.600;4.608;2022-09-09T04:41:47;26.60;51.50
44433;DHT22;30136;50.600;4.608;2022-09-09T04:42:48;26.60;51.40
44433;DHT22;30136;50.600;4.608;2022-09-09T04:43:50;26.60;51.40
44433;DHT22;30136;50.600;4.608;2022-09-09T04:44:55;26.60;51.50
44433;DHT22;30136;50.600;4.608;2022-09-09T04:45:56;26.60;51.50
44433;DHT22;30136;50.600;4.608;2022-09-09T04:46:59;26.50;51.50
44433;DHT22;30136;50.600;4.608;2022-09-09T04:48:00;26.60;51.40
44433;DHT22;30136;50.600;4.608;2022-09-09T04:49:01;26.60;51.40
44433;DHT22;30136;50.600;4.608;2022-09-09T04:50:05;26.60;51.30
44433;DHT22;30136;50.600;4.608;2022-09-09T04:51:08;26.60;51.40
44433;DHT22;30136;50.600;4.608;2022-09-09T04:52:10;26.60;51.50
44433;DHT22;30136;50.600;4.608;2022-09-09T04:53:11;26.60;51.50
44433;DHT22;30136;50.600;4.608;2022-09-09T04:54:13;26.60;51.50
44433;DHT22;30136;50.600;4.608;2022-09-09T04:55:16;26.60;51.40
44433;DHT22;30136;50.600;4.608;2022-09-09T04:56:18;26.50;51.30
44433;DHT22;30136;50.600;4.608;2022-09-09T04:57:28;26.60;51.30
44433;DHT22;30136;50.600;4.608;2022-09-09T04:58:29;26.50;51.40
44433;DHT22;30136;50.600;4.608;2022-09-09T04:59:30;26.60;51.40
44433;DHT22;30136;50.600;4.608;2022-09-09T05:00:34;26.60;51.30
44433;DHT22;30136;50.600;4.608;2022-09-09T05:01:38;26.50;51.20
44433;DHT22;30136;50.600;4.608;2022-09-09T05:02:40;26.50;51.40
44433;DHT22;30136;50.600;4.608;2022-09-09T05:03:41;26.60;51.50
44433;DHT22;30136;50.600;4.608;2022-09-09T05:04:45;26.60;51.50
44433;DHT22;30136;50.600;4.608;2022-09-09T05:05:47;26.60;51.40
44433;DHT22;30136;50.600;4.608;2022-09-09T05:06:48;26.60;51.40
44433;DHT22;30136;50.600;4.608;2022-09-09T05:07:49;26.50;51.40
44433;DHT22;30136;50.600;4.608;2022-09-09T05:08:50;26.50;51.40
44433;DHT22;30136;50.600;4.608;2022-09-09T05:09:54;26.50;51.30
44433;DHT22;30136;50.600;4.608;2022-09-09T05:10:56;26.50;51.40
44433;DHT22;30136;50.600;4.608;2022-09-09T05:11:56;26.50;51.50
44433;DHT22;30136;50.600;4.608;2022-09-09T05:13:03;26.50;51.40
44433;DHT22;30136;50.600;4.608;2022-09-09T05:14:05;26.50;51.50
44433;DHT22;30136;50.600;4.608;2022-09-09T05:15:07;26.50;51.60
44433;DHT22;30136;50.600;4.608;2022-09-09T05:16:08;26.50;51.50
44433;DHT22;30136;50.600;4.608;2022-09-09T05:17:11;26.50;51.40
44433;DHT22;30136;50.600;4.608;2022-09-09T05:18:13;26.50;51.40
44433;DHT22;30136;50.600;4.608;2022-09-09T05:19:14;26.50;51.30
44433;DHT22;30136;50.600;4.608;2022-09-09T05:20:19;26.50;51.20
44433;DHT22;30136;50.600;4.608;2022-09-09T05:21:21;26.50;51.20
44433;DHT22;30136;50.600;4.608;2022-09-09T05:22:23;26.50;51.30
44433;DHT22;30136;50.600;4.608;2022-09-09T05:23:26;26.50;51.40
44433;DHT22;30136;50.600;4.608;2022-09-09T05:24:28;26.50;51.30
44433;DHT22;30136;50.600;4.608;2022-09-09T05:25:31;26.50;51.30
44433;DHT22;30136;50.600;4.608;2022-09-09T05:26:32;26.50;51.40
44433;DHT22;30136;50.600;4.608;2022-09-09T05:27:34;26.50;51.30
44433;DHT22;30136;50.600;4.608;2022-09-09T05:28:35;26.50;51.30
44433;DHT22;30136;50.600;4.608;2022-09-09T05:29:36;26.50;51.30
44433;DHT22;30136;50.600;4.608;2022-09-09T05:30:39;26.50;51.30
44433;DHT22;30136;50.600;4.608;2022-09-09T05:31:40;26.50;51.30
44433;DHT22;30136;50.600;4.608;2022-09-09T05:32:45;26.50;51.30
44433;DHT22;30136;50.600;4.608;2022-09-09T05:33:48;26.50;51.30
44433;DHT22;30136;50.600;4.608;2022-09-09T05:34:50;26.50;51.40
44433;DHT22;30136;50.600;4.608;2022-09-09T05:36:03;26.50;51.20
44433;DHT22;30136;50.600;4.608;2022-09-09T05:37:05;26.50;51.30
44433;DHT22;30136;50.600;4.608;2022-09-09T05:38:08;26.50;51.20
44433;DHT22;30136;50.600;4.608;2022-09-09T05:39:08;26.50;51.30
44433;DHT22;30136;50.600;4.608;2022-09-09T05:40:09;26.50;51.50
44433;DHT22;30136;50.600;4.608;2022-09-09T05:41:12;26.50;51.30
44433;DHT22;30136;50.600;4.608;2022-09-09T05:42:13;26.50;51.50
44433;DHT22;30136;50.600;4.608;2022-09-09T05:43:14;26.50;51.50
44433;DHT22;30136;50.600;4.608;2022-09-09T05:44:15;26.50;51.50
44433;DHT22;30136;50.600;4.608;2022-09-09T05:45:17;26.50;51.30
44433;DHT22;30136;50.600;4.608;2022-09-09T05:46:20;26.50;51.30
44433;DHT22;30136;50.600;4.608;2022-09-09T05:47:24;26.50;51.30
44433;DHT22;30136;50.600;4.608;2022-09-09T05:48:27;26.50;51.30
44433;DHT22;30136;50.600;4.608;2022-09-09T05:49:28;26.50;51.20
44433;DHT22;30136;50.600;4.608;2022-09-09T05:50:29;26.50;51.20
44433;DHT22;30136;50.600;4.608;2022-09-09T05:51:30;26.50;51.20
44433;DHT22;30136;50.600;4.608;2022-09-09T05:52:32;26.50;51.20
44433;DHT22;30136;50.600;4.608;2022-09-09T05:53:34;26.50;51.20
44433;DHT22;30136;50.600;4.608;2022-09-09T05:54:35;26.50;51.20
44433;DHT22;30136;50.600;4.608;2022-09-09T05:55:37;26.50;51.30
44433;DHT22;30136;50.600;4.608;2022-09-09T05:56:38;26.50;51.20
44433;DHT22;30136;50.600;4.608;2022-09-09T05:57:41;26.50;51.20
44433;DHT22;30136;50.600;4.608;2022-09-09T05:58:43;26.50;51.20
44433;DHT22;30136;50.600;4.608;2022-09-09T05:59:46;26.50;51.20
44433;DHT22;30136;50.600;4.608;2022-09-09T06:00:47;26.50;51.20
44433;DHT22;30136;50.600;4.608;2022-09-09T06:01:47;26.50;51.20
44433;DHT22;30136;50.600;4.608;2022-09-09T06:02:55;26.50;51.30
44433;DHT22;30136;50.600;4.608;2022-09-09T06:03:57;26.50;51.20
44433;DHT22;30136;50.600;4.608;2022-09-09T06:04:58;26.50;51.10
44433;DHT22;30136;50.600;4.608;2022-09-09T06:06:01;26.50;51.20
44433;DHT22;30136;50.600;4.608;2022-09-09T06:07:12;26.50;51.20
44433;DHT22;30136;50.600;4.608;2022-09-09T06:08:14;26.50;51.20
44433;DHT22;30136;50.600;4.608;2022-09-09T06:09:17;26.50;51.30
44433;DHT22;30136;50.600;4.608;2022-09-09T06:10:18;26.50;51.20
44433;DHT22;30136;50.600;4.608;2022-09-09T06:11:21;26.50;51.30
44433;DHT22;30136;50.600;4.608;2022-09-09T06:12:23;26.50;51.20
44433;DHT22;30136;50.600;4.608;2022-09-09T06:13:24;26.50;51.20
44433;DHT22;30136;50.600;4.608;2022-09-09T06:14:25;26.50;51.20
44433;DHT22;30136;50.600;4.608;2022-09-09T06:15:28;26.50;51.20
44433;DHT22;30136;50.600;4.608;2022-09-09T06:16:31;26.50;51.80
44433;DHT22;30136;50.600;4.608;2022-09-09T06:17:35;26.50;51.20
44433;DHT22;30136;50.600;4.608;2022-09-09T06:18:38;26.50;51.20
44433;DHT22;30136;50.600;4.608;2022-09-09T06:19:41;26.50;51.20
44433;DHT22;30136;50.600;4.608;2022-09-09T06:20:42;26.50;51.20
44433;DHT22;30136;50.600;4.608;2022-09-09T06:21:43;26.50;51.30
44433;DHT22;30136;50.600;4.608;2022-09-09T06:22:45;26.50;51.20
44433;DHT22;30136;50.600;4.608;2022-09-09T06:23:49;26.50;51.30
44433;DHT22;30136;50.600;4.608;2022-09-09T06:24:51;26.50;51.40
44433;DHT22;30136;50.600;4.608;2022-09-09T06:26:38;26.50;51.20
44433;DHT22;30136;50.600;4.608;2022-09-09T06:27:41;26.50;51.20
44433;DHT22;30136;50.600;4.608;2022-09-09T06:28:48;26.50;51.20
44433;DHT22;30136;50.600;4.608;2022-09-09T06:29:50;26.50;51.20
44433;DHT22;30136;50.600;4.608;2022-09-09T06:31:06;26.50;51.20
44433;DHT22;30136;50.600;4.608;2022-09-09T06:32:08;26.50;51.20
44433;DHT22;30136;50.600;4.608;2022-09-09T06:33:09;26.50;51.20
44433;DHT22;30136;50.600;4.608;2022-09-09T06:34:11;26.50;51.20
44433;DHT22;30136;50.600;4.608;2022-09-09T06:35:15;26.50;51.20
44433;DHT22;30136;50.600;4.608;2022-09-09T06:36:18;26.50;51.20
44433;DHT22;30136;50.600;4.608;2022-09-09T06:37:20;26.50;51.30
44433;DHT22;30136;50.600;4.608;2022-09-09T06:38:24;26.50;51.30
44433;DHT22;30136;50.600;4.608;2022-09-09T06:39:25;26.50;51.30
44433;DHT22;30136;50.600;4.608;2022-09-09T06:40:26;26.50;51.30
44433;DHT22;30136;50.600;4.608;2022-09-09T06:41:29;26.50;51.20
44433;DHT22;30136;50.600;4.608;2022-09-09T06:42:31;26.50;51.20
44433;DHT22;30136;50.600;4.608;2022-09-09T06:43:43;26.50;51.20
44433;DHT22;30136;50.600;4.608;2022-09-09T06:44:45;26.50;51.20
44433;DHT22;30136;50.600;4.608;2022-09-09T06:46:28;26.50;51.20
44433;DHT22;30136;50.600;4.608;2022-09-09T06:47:28;26.50;51.20
44433;DHT22;30136;50.600;4.608;2022-09-09T06:48:32;26.50;51.10
44433;DHT22;30136;50.600;4.608;2022-09-09T06:49:34;26.50;51.50
44433;DHT22;30136;50.600;4.608;2022-09-09T06:50:36;26.50;51.30
44433;DHT22;30136;50.600;4.608;2022-09-09T06:51:39;26.50;51.50
44433;DHT22;30136;50.600;4.608;2022-09-09T06:52:47;26.50;51.30
44433;DHT22;30136;50.600;4.608;2022-09-09T06:53:53;26.50;51.80
44433;DHT22;30136;50.600;4.608;2022-09-09T06:54:55;26.50;51.80
44433;DHT22;30136;50.600;4.608;2022-09-09T06:55:56;26.50;51.70
44433;DHT22;30136;50.600;4.608;2022-09-09T06:56:57;26.50;51.80
44433;DHT22;30136;50.600;4.608;2022-09-09T06:57:59;26.50;51.70
44433;DHT22;30136;50.600;4.608;2022-09-09T06:59:03;26.50;51.30
44433;DHT22;30136;50.600;4.608;2022-09-09T07:00:06;26.50;51.10
44433;DHT22;30136;50.600;4.608;2022-09-09T07:01:08;26.50;51.10
44433;DHT22;30136;50.600;4.608;2022-09-09T07:02:10;26.50;51.00
44433;DHT22;30136;50.600;4.608;2022-09-09T07:03:11;26.50;50.70
44433;DHT22;30136;50.600;4.608;2022-09-09T07:04:13;26.40;50.60
44433;DHT22;30136;50.600;4.608;2022-09-09T07:05:16;26.40;50.50
44433;DHT22;30136;50.600;4.608;2022-09-09T07:06:22;26.40;50.40
44433;DHT22;30136;50.600;4.608;2022-09-09T07:07:25;26.40;50.30
44433;DHT22;30136;50.600;4.608;2022-09-09T07:08:26;26.40;50.30
44433;DHT22;30136;50.600;4.608;2022-09-09T07:09:28;26.40;50.20
44433;DHT22;30136;50.600;4.608;2022-09-09T07:10:30;26.40;50.10
44433;DHT22;30136;50.600;4.608;2022-09-09T07:11:37;26.40;50.10
44433;DHT22;30136;50.600;4.608;2022-09-09T07:12:39;26.40;50.00
44433;DHT22;30136;50.600;4.608;2022-09-09T07:13:43;26.30;50.00
44433;DHT22;30136;50.600;4.608;2022-09-09T07:14:44;26.30;50.10
44433;DHT22;30136;50.600;4.608;2022-09-09T07:15:46;26.30;50.00
44433;DHT22;30136;50.600;4.608;2022-09-09T07:16:47;26.30;50.00
44433;DHT22;30136;50.600;4.608;2022-09-09T07:17:50;26.30;49.90
44433;DHT22;30136;50.600;4.608;2022-09-09T07:18:53;26.30;49.80
44433;DHT22;30136;50.600;4.608;2022-09-09T07:19:58;26.30;49.80
44433;DHT22;30136;50.600;4.608;2022-09-09T07:21:00;26.20;49.80
44433;DHT22;30136;50.600;4.608;2022-09-09T07:22:03;26.20;49.80
44433;DHT22;30136;50.600;4.608;2022-09-09T07:23:04;26.20;49.80
44433;DHT22;30136;50.600;4.608;2022-09-09T07:24:06;26.30;49.80
44433;DHT22;30136;50.600;4.608;2022-09-09T07:25:08;26.20;49.90
44433;DHT22;30136;50.600;4.608;2022-09-09T07:26:11;26.20;49.80
44433;DHT22;30136;50.600;4.608;2022-09-09T07:27:13;26.20;49.80
44433;DHT22;30136;50.600;4.608;2022-09-09T07:28:15;26.20;49.90
44433;DHT22;30136;50.600;4.608;2022-09-09T07:29:17;26.20;49.70
44433;DHT22;30136;50.600;4.608;2022-09-09T07:30:18;26.20;49.80
44433;DHT22;30136;50.600;4.608;2022-09-09T07:31:22;26.20;49.70
44433;DHT22;30136;50.600;4.608;2022-09-09T07:32:28;26.10;49.80
44433;DHT22;30136;50.600;4.608;2022-09-09T07:33:33;26.20;49.80
44433;DHT22;30136;50.600;4.608;2022-09-09T07:34:35;26.20;49.80
44433;DHT22;30136;50.600;4.608;2022-09-09T07:35:36;26.10;49.90
44433;DHT22;30136;50.600;4.608;2022-09-09T07:36:39;26.20;49.90